WetterOnline ( https://www.wetteronline.de )

Wetter aktuell Sinsheim

Aktuelles Wetter: Mühlacker (245m)

6-stündlich | Neueste Meldungen
Ortszeit Temperatur Wetter
Do, 06.10. 8:00 15.5° C bedeckt
Do, 06.10. 2:00 8.6° C wolkenlos
Mi, 05.10. 20:00 13.8° C wolkig
Mi, 05.10. 14:00 21.4° C leicht bewölkt
Mi, 05.10. 8:00 4.8° C Nebel
Mi, 05.10. 2:00 6.2° C Nebel
Di, 04.10. 20:00 10.9° C fast wolkenlos
Di, 04.10. 14:00 16.7° C bedeckt
Ortszeit Temperatur Wetter
Do, 06.10. 11:30 16.0° C bedeckt
Do, 06.10. 11:20 16.0° C bedeckt
Do, 06.10. 11:10 15.9° C bedeckt
Do, 06.10. 11:00 16.1° C bedeckt
Do, 06.10. 10:50 16.1° C bedeckt
Do, 06.10. 10:40 16.1° C bedeckt
Do, 06.10. 10:30 15.5° C bedeckt
Do, 06.10. 10:00 15.4° C bedeckt
Do, 06.10. 9:30 15.3° C bedeckt
Do, 06.10. 9:00 15.3° C bedeckt
Do, 06.10. 8:30 15.6° C bedeckt
Ortszeit Relative Feuchte Sichtweite
Do, 06.10. 8:00 82% 45 km
Do, 06.10. 2:00 95% 30 km
Mi, 05.10. 20:00 91% 40 km
Mi, 05.10. 14:00 55% 30 km
Mi, 05.10. 8:00 96% 1.6 km
Mi, 05.10. 2:00 96% 15 km
Di, 04.10. 20:00 93% 35 km
Di, 04.10. 14:00 69% 50 km
Ortszeit Relative Feuchte Sichtweite
Do, 06.10. 11:30 70% >70 km
Do, 06.10. 11:20 70% -
Do, 06.10. 11:10 70% -
Do, 06.10. 11:00 71% 60 km
Do, 06.10. 10:50 71% -
Do, 06.10. 10:40 71% -
Do, 06.10. 10:30 72% >70 km
Do, 06.10. 10:00 76% 55 km
Do, 06.10. 9:30 78% 50 km
Do, 06.10. 9:00 79% 50 km
Do, 06.10. 8:30 81% 50 km
Ortszeit Niederschlagsmenge Niederschlagsart
Do, 06.10. 8:00 0.0 l/m2 in 12 Std. -
Do, 06.10. 2:00 0.0 l/m2 in 6 Std. -
Mi, 05.10. 20:00 0.0 l/m2 in 12 Std. -
Mi, 05.10. 14:00 0.0 l/m2 in 6 Std. -
Mi, 05.10. 8:00 0.0 l/m2 in 12 Std. -
Mi, 05.10. 2:00 0.0 l/m2 in 6 Std. -
Di, 04.10. 20:00 0.0 l/m2 in 12 Std. -
Di, 04.10. 14:00 0.0 l/m2 in 6 Std. -
Ortszeit Niederschlagsmenge Niederschlagsart
Do, 06.10. 11:30 0.0 l/m2 in 1 Std. -
Do, 06.10. 11:20 keine Meldung -
Do, 06.10. 11:10 keine Meldung -
Do, 06.10. 11:00 0.0 l/m2 in 1 Std. -
Do, 06.10. 10:50 keine Meldung -
Do, 06.10. 10:40 keine Meldung -
Do, 06.10. 10:30 0.0 l/m2 in 1 Std. -
Do, 06.10. 10:00 0.0 l/m2 in 1 Std. -
Do, 06.10. 9:30 0.0 l/m2 in 1 Std. -
Do, 06.10. 9:00 0.0 l/m2 in 1 Std. -
Do, 06.10. 8:30 0.0 l/m2 in 1 Std. -
Ortszeit Stärke Spitze Richtung
km/h Bft. km/h Grad Sektor
Do, 06.10. 8:00 7 2 29 260° W
Do, 06.10. 2:00 2 1 6 270° W
Mi, 05.10. 20:00 0 0 18 - -
Mi, 05.10. 14:00 4 1 18 150° SO
Mi, 05.10. 8:00 0 0 4 - -
Mi, 05.10. 2:00 0 0 4 - -
Di, 04.10. 20:00 2 1 17 130° SO
Di, 04.10. 14:00 7 2 22 100° O
Ortszeit Stärke Spitze Richtung
km/h Bft. km/h Grad Sektor
Do, 06.10. 11:30 11 2 18 290° W
Do, 06.10. 11:20 11 2 - 290° W
Do, 06.10. 11:10 9 2 - 290° W
Do, 06.10. 11:00 9 2 20 280° W
Do, 06.10. 10:50 9 2 - 280° W
Do, 06.10. 10:40 9 2 - 280° W
Do, 06.10. 10:30 13 3 20 290° W
Do, 06.10. 10:00 9 2 22 270° W
Do, 06.10. 9:30 11 2 20 270° W
Do, 06.10. 9:00 11 2 25 270° W
Do, 06.10. 8:30 11 2 22 280° W
Ortszeit Untergrenze Bedeckung Gattung
total tief tief mittel hoch
Do, 06.10. 8:00 1140 m 8/8 8/8 - - -
Do, 06.10. 2:00 - 0/8 0/8 - - -
Mi, 05.10. 20:00 9000 m 8/8 0/8 - - -
Mi, 05.10. 14:00 10500 m 5/8 0/8 - - -
Mi, 05.10. 8:00 30 m 8/8 8/8 - - -
Mi, 05.10. 2:00 30 m 8/8 1/8 - - -
Di, 04.10. 20:00 10500 m 1/8 0/8 - - -
Di, 04.10. 14:00 4500 m 8/8 8/8 - - -
Ortszeit Bedeckungsgrad in Achtel und Wolkenuntergrenze
Do, 06.10. 11:30 2(660m) 8(1230m) 8(1800m)
Do, 06.10. 11:20 2(660m) 8(1230m) 8(1800m)
Do, 06.10. 11:10 8
Do, 06.10. 11:00 4(660m) 8(1170m) 8(1500m)
Do, 06.10. 10:50 4(660m) 8(1170m) 8(1500m)
Do, 06.10. 10:40 8
Do, 06.10. 10:30 2(660m) 8(1080m)
Do, 06.10. 10:00 7(1170m) 7(1410m) 8(1500m)
Do, 06.10. 9:30 8(1200m)
Do, 06.10. 9:00 8(1260m)
Do, 06.10. 8:30 8(1380m)
Ortszeit Luftdruck NN (hPa) Tendenz (hPa in 3 Std.)
Do, 06.10. 8:00 1029 + 2,3
Do, 06.10. 2:00 1025 + 1,3
Mi, 05.10. 20:00 1021 + 1,1
Mi, 05.10. 14:00 1020 - 1,4
Mi, 05.10. 8:00 1023 0,0
Mi, 05.10. 2:00 1023 - 0,6
Di, 04.10. 20:00 1022 - 0,3
Di, 04.10. 14:00 1023 - 0,8
Ortszeit Luftdruck NN (hPa) Tendenz (hPa in 3 Std.)
Do, 06.10. 11:30 1031 + 2,1
Do, 06.10. 11:20 1031 keine Meldung
Do, 06.10. 11:10 1031 keine Meldung
Do, 06.10. 11:00 1031 + 2,4
Do, 06.10. 10:50 1031 keine Meldung
Do, 06.10. 10:40 1031 keine Meldung
Do, 06.10. 10:30 1031 + 2,6
Do, 06.10. 10:00 1031 + 2,6
Do, 06.10. 9:30 1030 + 2,6
Do, 06.10. 9:00 1030 + 2,5
Do, 06.10. 8:30 1029 + 2,3
Ortszeit Schneehöhe (cm)
Do, 06.10. 8:00 0
Do, 06.10. 2:00 0
Mi, 05.10. 20:00 0
Mi, 05.10. 14:00 0
Mi, 05.10. 8:00 0
Mi, 05.10. 2:00 0
Di, 04.10. 20:00 0
Di, 04.10. 14:00 0
Ortszeit Schneehöhe (cm)
Do, 06.10. 11:30 0
Do, 06.10. 11:20 0
Do, 06.10. 11:10 0
Do, 06.10. 11:00 0
Do, 06.10. 10:50 0
Do, 06.10. 10:40 0
Do, 06.10. 10:30 0
Do, 06.10. 10:00 0
Do, 06.10. 9:30 0
Do, 06.10. 9:00 0
Do, 06.10. 8:30 0
Link zu dieser Seite / Seite empfehlen

Das Wetter in ...